sensor_id;sensor_type;location;lat;lon;timestamp;P1;durP1;ratioP1;P2;durP2;ratioP2
37517;SDS011;23366;52.498;13.446;2022-12-10T00:01:11;19.10;;;8.00;;
37517;SDS011;23366;52.498;13.446;2022-12-10T00:03:38;17.08;;;8.55;;
37517;SDS011;23366;52.498;13.446;2022-12-10T00:06:05;16.88;;;7.88;;
37517;SDS011;23366;52.498;13.446;2022-12-10T00:08:31;18.80;;;6.88;;
37517;SDS011;23366;52.498;13.446;2022-12-10T00:10:58;21.27;;;8.10;;
37517;SDS011;23366;52.498;13.446;2022-12-10T00:13:24;13.38;;;7.22;;
37517;SDS011;23366;52.498;13.446;2022-12-10T00:15:49;14.98;;;7.20;;
37517;SDS011;23366;52.498;13.446;2022-12-10T00:18:15;11.75;;;6.07;;
37517;SDS011;23366;52.498;13.446;2022-12-10T00:20:43;13.27;;;6.95;;
37517;SDS011;23366;52.498;13.446;2022-12-10T00:23:09;20.42;;;7.95;;
37517;SDS011;23366;52.498;13.446;2022-12-10T00:25:34;20.60;;;9.15;;
37517;SDS011;23366;52.498;13.446;2022-12-10T00:27:59;20.48;;;9.70;;
37517;SDS011;23366;52.498;13.446;2022-12-10T00:30:25;21.92;;;9.02;;
37517;SDS011;23366;52.498;13.446;2022-12-10T00:32:54;17.15;;;7.35;;
37517;SDS011;23366;52.498;13.446;2022-12-10T00:35:19;20.48;;;9.80;;
37517;SDS011;23366;52.498;13.446;2022-12-10T00:37:45;21.65;;;8.75;;
37517;SDS011;23366;52.498;13.446;2022-12-10T00:40:11;17.58;;;7.65;;
37517;SDS011;23366;52.498;13.446;2022-12-10T00:42:36;23.38;;;9.70;;
37517;SDS011;23366;52.498;13.446;2022-12-10T00:45:04;16.58;;;6.45;;
37517;SDS011;23366;52.498;13.446;2022-12-10T00:47:30;19.70;;;7.97;;
37517;SDS011;23366;52.498;13.446;2022-12-10T00:49:55;19.60;;;9.52;;
37517;SDS011;23366;52.498;13.446;2022-12-10T00:52:21;20.55;;;9.38;;
37517;SDS011;23366;52.498;13.446;2022-12-10T00:54:47;14.30;;;8.07;;
37517;SDS011;23366;52.498;13.446;2022-12-10T00:57:12;22.63;;;8.82;;
37517;SDS011;23366;52.498;13.446;2022-12-10T00:59:38;21.23;;;7.88;;
37517;SDS011;23366;52.498;13.446;2022-12-10T01:02:03;19.60;;;8.05;;
37517;SDS011;23366;52.498;13.446;2022-12-10T01:04:29;24.25;;;8.27;;
37517;SDS011;23366;52.498;13.446;2022-12-10T01:06:55;17.05;;;7.45;;
37517;SDS011;23366;52.498;13.446;2022-12-10T01:09:24;19.17;;;9.13;;
37517;SDS011;23366;52.498;13.446;2022-12-10T01:11:52;16.83;;;7.20;;
37517;SDS011;23366;52.498;13.446;2022-12-10T01:14:23;15.55;;;8.00;;
37517;SDS011;23366;52.498;13.446;2022-12-10T01:16:55;17.60;;;7.93;;
37517;SDS011;23366;52.498;13.446;2022-12-10T01:19:23;14.70;;;7.72;;
37517;SDS011;23366;52.498;13.446;2022-12-10T01:21:52;20.48;;;8.13;;
37517;SDS011;23366;52.498;13.446;2022-12-10T01:24:19;15.10;;;6.97;;
37517;SDS011;23366;52.498;13.446;2022-12-10T01:26:45;30.85;;;9.93;;
37517;SDS011;23366;52.498;13.446;2022-12-10T01:29:11;18.10;;;8.60;;
37517;SDS011;23366;52.498;13.446;2022-12-10T01:31:38;28.35;;;10.55;;
37517;SDS011;23366;52.498;13.446;2022-12-10T01:34:05;19.25;;;8.10;;
37517;SDS011;23366;52.498;13.446;2022-12-10T01:36:36;17.10;;;7.40;;
37517;SDS011;23366;52.498;13.446;2022-12-10T01:39:05;13.82;;;6.78;;
37517;SDS011;23366;52.498;13.446;2022-12-10T01:41:39;17.42;;;7.53;;
37517;SDS011;23366;52.498;13.446;2022-12-10T01:46:42;14.73;;;7.80;;
37517;SDS011;23366;52.498;13.446;2022-12-10T01:49:14;16.35;;;7.72;;
37517;SDS011;23366;52.498;13.446;2022-12-10T01:51:42;20.02;;;9.15;;
37517;SDS011;23366;52.498;13.446;2022-12-10T01:54:11;19.13;;;7.30;;
37517;SDS011;23366;52.498;13.446;2022-12-10T01:56:40;16.25;;;7.45;;
37517;SDS011;23366;52.498;13.446;2022-12-10T01:59:08;16.83;;;7.45;;
37517;SDS011;23366;52.498;13.446;2022-12-10T02:06:58;20.37;;;8.97;;
37517;SDS011;23366;52.498;13.446;2022-12-10T02:17:30;20.35;;;7.45;;
37517;SDS011;23366;52.498;13.446;2022-12-10T02:20:14;18.42;;;8.95;;
37517;SDS011;23366;52.498;13.446;2022-12-10T02:22:49;16.23;;;7.07;;
37517;SDS011;23366;52.498;13.446;2022-12-10T02:25:24;22.58;;;8.70;;
37517;SDS011;23366;52.498;13.446;2022-12-10T02:28:01;24.33;;;9.27;;
37517;SDS011;23366;52.498;13.446;2022-12-10T02:30:36;22.15;;;8.18;;
37517;SDS011;23366;52.498;13.446;2022-12-10T02:33:07;18.08;;;8.70;;
37517;SDS011;23366;52.498;13.446;2022-12-10T02:35:38;21.30;;;8.52;;
37517;SDS011;23366;52.498;13.446;2022-12-10T02:38:14;19.15;;;7.72;;
37517;SDS011;23366;52.498;13.446;2022-12-10T02:40:46;23.40;;;10.00;;
37517;SDS011;23366;52.498;13.446;2022-12-10T02:43:15;22.80;;;8.13;;
37517;SDS011;23366;52.498;13.446;2022-12-10T02:45:41;18.35;;;7.82;;
37517;SDS011;23366;52.498;13.446;2022-12-10T02:48:08;18.15;;;8.48;;
37517;SDS011;23366;52.498;13.446;2022-12-10T02:50:34;15.60;;;7.68;;
37517;SDS011;23366;52.498;13.446;2022-12-10T02:53:00;23.35;;;10.05;;
37517;SDS011;23366;52.498;13.446;2022-12-10T02:55:26;20.48;;;7.43;;
37517;SDS011;23366;52.498;13.446;2022-12-10T02:58:13;20.50;;;7.57;;
37517;SDS011;23366;52.498;13.446;2022-12-10T03:00:58;22.30;;;11.43;;
37517;SDS011;23366;52.498;13.446;2022-12-10T03:06:41;19.85;;;7.72;;
37517;SDS011;23366;52.498;13.446;2022-12-10T03:09:29;24.70;;;8.77;;
37517;SDS011;23366;52.498;13.446;2022-12-10T03:12:06;21.30;;;8.93;;
37517;SDS011;23366;52.498;13.446;2022-12-10T03:14:52;22.55;;;7.97;;
37517;SDS011;23366;52.498;13.446;2022-12-10T03:17:23;23.95;;;11.45;;
37517;SDS011;23366;52.498;13.446;2022-12-10T03:19:50;24.92;;;8.88;;
37517;SDS011;23366;52.498;13.446;2022-12-10T03:22:17;16.33;;;8.63;;
37517;SDS011;23366;52.498;13.446;2022-12-10T03:24:44;23.02;;;8.98;;
37517;SDS011;23366;52.498;13.446;2022-12-10T03:27:18;20.30;;;8.18;;
37517;SDS011;23366;52.498;13.446;2022-12-10T03:29:46;24.02;;;10.50;;
37517;SDS011;23366;52.498;13.446;2022-12-10T03:32:15;21.63;;;10.75;;
37517;SDS011;23366;52.498;13.446;2022-12-10T03:34:42;23.77;;;9.57;;
37517;SDS011;23366;52.498;13.446;2022-12-10T03:37:12;23.65;;;10.80;;
37517;SDS011;23366;52.498;13.446;2022-12-10T03:39:42;23.20;;;9.73;;
37517;SDS011;23366;52.498;13.446;2022-12-10T03:42:10;33.08;;;11.23;;
37517;SDS011;23366;52.498;13.446;2022-12-10T03:44:37;24.05;;;10.65;;
37517;SDS011;23366;52.498;13.446;2022-12-10T03:47:05;23.15;;;10.18;;
37517;SDS011;23366;52.498;13.446;2022-12-10T03:49:33;20.83;;;11.90;;
37517;SDS011;23366;52.498;13.446;2022-12-10T03:52:01;24.52;;;10.43;;
37517;SDS011;23366;52.498;13.446;2022-12-10T03:54:27;19.13;;;9.52;;
37517;SDS011;23366;52.498;13.446;2022-12-10T03:56:53;24.13;;;11.73;;
37517;SDS011;23366;52.498;13.446;2022-12-10T03:59:30;19.83;;;10.07;;
37517;SDS011;23366;52.498;13.446;2022-12-10T04:02:02;24.00;;;9.18;;
37517;SDS011;23366;52.498;13.446;2022-12-10T04:04:28;19.75;;;9.10;;
37517;SDS011;23366;52.498;13.446;2022-12-10T04:06:54;22.33;;;9.88;;
37517;SDS011;23366;52.498;13.446;2022-12-10T04:09:32;22.58;;;10.65;;
37517;SDS011;23366;52.498;13.446;2022-12-10T04:11:57;19.10;;;9.30;;
37517;SDS011;23366;52.498;13.446;2022-12-10T04:14:24;30.52;;;11.40;;
37517;SDS011;23366;52.498;13.446;2022-12-10T04:17:10;21.40;;;10.25;;
37517;SDS011;23366;52.498;13.446;2022-12-10T04:19:37;25.15;;;9.68;;
37517;SDS011;23366;52.498;13.446;2022-12-10T04:22:25;29.67;;;11.73;;
37517;SDS011;23366;52.498;13.446;2022-12-10T04:25:10;24.90;;;11.18;;
37517;SDS011;23366;52.498;13.446;2022-12-10T04:27:59;29.25;;;10.23;;
37517;SDS011;23366;52.498;13.446;2022-12-10T04:30:24;21.52;;;10.00;;
37517;SDS011;23366;52.498;13.446;2022-12-10T04:32:50;19.35;;;9.50;;
37517;SDS011;23366;52.498;13.446;2022-12-10T04:35:15;18.50;;;9.27;;
37517;SDS011;23366;52.498;13.446;2022-12-10T04:37:42;27.13;;;12.20;;
37517;SDS011;23366;52.498;13.446;2022-12-10T04:40:08;19.13;;;9.98;;
37517;SDS011;23366;52.498;13.446;2022-12-10T04:42:34;19.63;;;9.68;;
37517;SDS011;23366;52.498;13.446;2022-12-10T04:44:59;22.38;;;11.05;;
37517;SDS011;23366;52.498;13.446;2022-12-10T04:47:28;21.85;;;10.27;;
37517;SDS011;23366;52.498;13.446;2022-12-10T04:52:24;23.27;;;9.43;;
37517;SDS011;23366;52.498;13.446;2022-12-10T04:54:50;23.65;;;9.80;;
37517;SDS011;23366;52.498;13.446;2022-12-10T04:57:15;25.40;;;9.63;;
37517;SDS011;23366;52.498;13.446;2022-12-10T04:59:41;14.75;;;7.47;;
37517;SDS011;23366;52.498;13.446;2022-12-10T05:02:07;18.15;;;9.32;;
37517;SDS011;23366;52.498;13.446;2022-12-10T05:04:32;28.27;;;10.30;;
37517;SDS011;23366;52.498;13.446;2022-12-10T05:06:58;20.40;;;9.23;;
37517;SDS011;23366;52.498;13.446;2022-12-10T05:09:24;16.88;;;8.98;;
37517;SDS011;23366;52.498;13.446;2022-12-10T05:11:49;15.73;;;8.45;;
37517;SDS011;23366;52.498;13.446;2022-12-10T05:14:15;14.75;;;8.43;;
37517;SDS011;23366;52.498;13.446;2022-12-10T05:16:41;17.77;;;7.63;;
37517;SDS011;23366;52.498;13.446;2022-12-10T05:19:07;21.23;;;10.57;;
37517;SDS011;23366;52.498;13.446;2022-12-10T05:21:34;19.67;;;9.40;;
37517;SDS011;23366;52.498;13.446;2022-12-10T05:24:18;15.57;;;7.13;;
37517;SDS011;23366;52.498;13.446;2022-12-10T05:26:44;22.70;;;10.20;;
37517;SDS011;23366;52.498;13.446;2022-12-10T05:29:09;19.42;;;9.80;;
37517;SDS011;23366;52.498;13.446;2022-12-10T05:31:36;17.58;;;7.85;;
37517;SDS011;23366;52.498;13.446;2022-12-10T05:34:02;18.50;;;8.65;;
37517;SDS011;23366;52.498;13.446;2022-12-10T05:36:28;20.73;;;10.10;;
37517;SDS011;23366;52.498;13.446;2022-12-10T05:38:55;18.02;;;7.78;;
37517;SDS011;23366;52.498;13.446;2022-12-10T05:41:23;16.73;;;7.15;;
37517;SDS011;23366;52.498;13.446;2022-12-10T05:43:51;19.90;;;9.68;;
37517;SDS011;23366;52.498;13.446;2022-12-10T05:46:20;22.67;;;11.63;;
37517;SDS011;23366;52.498;13.446;2022-12-10T05:48:47;14.85;;;8.23;;
37517;SDS011;23366;52.498;13.446;2022-12-10T05:51:14;19.65;;;10.32;;
37517;SDS011;23366;52.498;13.446;2022-12-10T05:53:43;19.88;;;9.38;;
37517;SDS011;23366;52.498;13.446;2022-12-10T05:56:20;20.48;;;8.60;;
37517;SDS011;23366;52.498;13.446;2022-12-10T05:58:47;21.75;;;8.40;;
37517;SDS011;23366;52.498;13.446;2022-12-10T06:01:15;20.63;;;9.18;;
37517;SDS011;23366;52.498;13.446;2022-12-10T06:03:42;19.52;;;8.80;;
37517;SDS011;23366;52.498;13.446;2022-12-10T06:06:08;18.27;;;7.95;;
37517;SDS011;23366;52.498;13.446;2022-12-10T06:08:34;17.00;;;7.63;;
37517;SDS011;23366;52.498;13.446;2022-12-10T06:11:01;18.67;;;7.70;;
37517;SDS011;23366;52.498;13.446;2022-12-10T06:13:27;19.73;;;8.73;;
37517;SDS011;23366;52.498;13.446;2022-12-10T06:15:54;14.48;;;6.82;;
37517;SDS011;23366;52.498;13.446;2022-12-10T06:18:20;17.55;;;7.60;;
37517;SDS011;23366;52.498;13.446;2022-12-10T06:20:46;18.58;;;8.32;;
37517;SDS011;23366;52.498;13.446;2022-12-10T06:23:11;17.42;;;7.90;;
37517;SDS011;23366;52.498;13.446;2022-12-10T06:25:40;13.15;;;7.07;;
37517;SDS011;23366;52.498;13.446;2022-12-10T06:28:06;14.57;;;6.85;;
37517;SDS011;23366;52.498;13.446;2022-12-10T06:30:32;18.23;;;8.80;;
37517;SDS011;23366;52.498;13.446;2022-12-10T06:33:01;16.73;;;8.10;;
37517;SDS011;23366;52.498;13.446;2022-12-10T06:35:33;11.55;;;6.18;;
37517;SDS011;23366;52.498;13.446;2022-12-10T06:37:58;14.82;;;7.95;;
37517;SDS011;23366;52.498;13.446;2022-12-10T06:40:24;18.45;;;9.65;;
37517;SDS011;23366;52.498;13.446;2022-12-10T06:42:52;14.30;;;6.82;;
37517;SDS011;23366;52.498;13.446;2022-12-10T06:45:18;15.75;;;7.82;;
37517;SDS011;23366;52.498;13.446;2022-12-10T06:47:44;17.58;;;9.60;;
37517;SDS011;23366;52.498;13.446;2022-12-10T06:50:09;11.38;;;6.55;;
37517;SDS011;23366;52.498;13.446;2022-12-10T06:52:35;16.13;;;7.72;;
37517;SDS011;23366;52.498;13.446;2022-12-10T06:55:00;13.05;;;6.53;;
37517;SDS011;23366;52.498;13.446;2022-12-10T06:57:25;14.23;;;7.50;;
37517;SDS011;23366;52.498;13.446;2022-12-10T06:59:51;14.75;;;6.60;;
37517;SDS011;23366;52.498;13.446;2022-12-10T07:02:16;11.85;;;6.03;;
37517;SDS011;23366;52.498;13.446;2022-12-10T07:04:42;13.20;;;7.88;;
37517;SDS011;23366;52.498;13.446;2022-12-10T07:07:08;14.05;;;6.93;;
37517;SDS011;23366;52.498;13.446;2022-12-10T07:09:33;13.82;;;7.00;;
37517;SDS011;23366;52.498;13.446;2022-12-10T07:11:59;17.45;;;8.00;;
37517;SDS011;23366;52.498;13.446;2022-12-10T07:14:25;12.55;;;6.25;;
37517;SDS011;23366;52.498;13.446;2022-12-10T07:16:51;13.80;;;6.93;;
37517;SDS011;23366;52.498;13.446;2022-12-10T07:19:16;11.48;;;6.50;;
37517;SDS011;23366;52.498;13.446;2022-12-10T07:21:42;9.93;;;5.85;;
37517;SDS011;23366;52.498;13.446;2022-12-10T07:24:11;14.23;;;8.25;;
37517;SDS011;23366;52.498;13.446;2022-12-10T07:26:40;13.00;;;6.18;;
37517;SDS011;23366;52.498;13.446;2022-12-10T07:29:07;12.40;;;6.15;;
37517;SDS011;23366;52.498;13.446;2022-12-10T07:31:36;11.48;;;6.55;;
37517;SDS011;23366;52.498;13.446;2022-12-10T07:34:02;9.35;;;5.72;;
37517;SDS011;23366;52.498;13.446;2022-12-10T07:36:28;15.35;;;6.60;;
37517;SDS011;23366;52.498;13.446;2022-12-10T07:38:53;10.40;;;5.43;;
37517;SDS011;23366;52.498;13.446;2022-12-10T07:41:20;13.35;;;6.10;;
37517;SDS011;23366;52.498;13.446;2022-12-10T07:43:47;13.90;;;6.07;;
37517;SDS011;23366;52.498;13.446;2022-12-10T07:46:17;11.57;;;5.32;;
37517;SDS011;23366;52.498;13.446;2022-12-10T07:48:45;13.38;;;7.13;;
37517;SDS011;23366;52.498;13.446;2022-12-10T07:51:12;12.20;;;7.22;;
37517;SDS011;23366;52.498;13.446;2022-12-10T07:53:38;10.07;;;6.10;;
37517;SDS011;23366;52.498;13.446;2022-12-10T07:56:04;13.30;;;6.25;;
37517;SDS011;23366;52.498;13.446;2022-12-10T07:58:30;12.85;;;6.68;;
37517;SDS011;23366;52.498;13.446;2022-12-10T08:00:56;18.23;;;8.00;;
37517;SDS011;23366;52.498;13.446;2022-12-10T08:03:21;10.75;;;7.68;;
37517;SDS011;23366;52.498;13.446;2022-12-10T08:06:06;10.70;;;4.95;;
37517;SDS011;23366;52.498;13.446;2022-12-10T08:08:44;10.00;;;6.32;;
37517;SDS011;23366;52.498;13.446;2022-12-10T08:11:11;19.88;;;6.32;;
37517;SDS011;23366;52.498;13.446;2022-12-10T08:13:38;9.63;;;4.93;;
37517;SDS011;23366;52.498;13.446;2022-12-10T08:16:04;15.63;;;8.65;;
37517;SDS011;23366;52.498;13.446;2022-12-10T08:18:31;11.68;;;6.40;;
37517;SDS011;23366;52.498;13.446;2022-12-10T08:20:57;15.02;;;6.57;;
37517;SDS011;23366;52.498;13.446;2022-12-10T08:23:23;12.05;;;6.72;;
37517;SDS011;23366;52.498;13.446;2022-12-10T08:25:49;10.55;;;5.70;;
37517;SDS011;23366;52.498;13.446;2022-12-10T08:28:14;13.50;;;6.85;;
37517;SDS011;23366;52.498;13.446;2022-12-10T08:30:44;14.82;;;7.40;;
37517;SDS011;23366;52.498;13.446;2022-12-10T08:33:13;11.90;;;7.70;;
37517;SDS011;23366;52.498;13.446;2022-12-10T08:35:39;9.50;;;6.38;;
37517;SDS011;23366;52.498;13.446;2022-12-10T08:38:05;12.15;;;5.53;;
37517;SDS011;23366;52.498;13.446;2022-12-10T08:40:31;13.32;;;6.65;;
37517;SDS011;23366;52.498;13.446;2022-12-10T08:42:56;10.90;;;5.53;;
37517;SDS011;23366;52.498;13.446;2022-12-10T08:45:27;10.57;;;6.45;;
37517;SDS011;23366;52.498;13.446;2022-12-10T08:47:53;9.20;;;6.23;;
37517;SDS011;23366;52.498;13.446;2022-12-10T08:50:18;13.70;;;6.30;;
37517;SDS011;23366;52.498;13.446;2022-12-10T08:52:50;11.13;;;6.57;;
37517;SDS011;23366;52.498;13.446;2022-12-10T08:55:32;13.25;;;7.45;;
37517;SDS011;23366;52.498;13.446;2022-12-10T08:57:57;13.02;;;6.30;;
37517;SDS011;23366;52.498;13.446;2022-12-10T09:00:24;13.07;;;7.03;;
37517;SDS011;23366;52.498;13.446;2022-12-10T09:02:59;10.40;;;5.70;;
37517;SDS011;23366;52.498;13.446;2022-12-10T09:05:28;13.48;;;6.25;;
37517;SDS011;23366;52.498;13.446;2022-12-10T09:07:54;11.80;;;6.65;;
37517;SDS011;23366;52.498;13.446;2022-12-10T09:10:19;12.35;;;6.63;;
37517;SDS011;23366;52.498;13.446;2022-12-10T09:12:46;13.07;;;7.72;;
37517;SDS011;23366;52.498;13.446;2022-12-10T09:15:12;10.38;;;6.22;;
37517;SDS011;23366;52.498;13.446;2022-12-10T09:17:38;15.00;;;7.95;;
37517;SDS011;23366;52.498;13.446;2022-12-10T09:20:03;9.63;;;6.60;;
37517;SDS011;23366;52.498;13.446;2022-12-10T09:22:30;11.18;;;7.65;;
37517;SDS011;23366;52.498;13.446;2022-12-10T09:25:45;16.95;;;6.95;;
37517;SDS011;23366;52.498;13.446;2022-12-10T09:28:21;13.25;;;6.03;;
37517;SDS011;23366;52.498;13.446;2022-12-10T09:30:54;8.90;;;6.60;;
37517;SDS011;23366;52.498;13.446;2022-12-10T09:33:31;10.82;;;6.75;;
37517;SDS011;23366;52.498;13.446;2022-12-10T09:36:10;11.73;;;5.63;;
37517;SDS011;23366;52.498;13.446;2022-12-10T09:38:37;10.40;;;6.20;;
37517;SDS011;23366;52.498;13.446;2022-12-10T09:44:57;10.27;;;6.63;;
37517;SDS011;23366;52.498;13.446;2022-12-10T09:50:53;13.93;;;6.95;;
37517;SDS011;23366;52.498;13.446;2022-12-10T09:53:49;11.63;;;7.13;;
37517;SDS011;23366;52.498;13.446;2022-12-10T09:56:33;10.27;;;5.95;;
37517;SDS011;23366;52.498;13.446;2022-12-10T10:00:24;18.90;;;7.85;;
37517;SDS011;23366;52.498;13.446;2022-12-10T10:03:38;13.45;;;6.70;;
37517;SDS011;23366;52.498;13.446;2022-12-10T10:06:50;11.73;;;6.65;;
37517;SDS011;23366;52.498;13.446;2022-12-10T10:09:17;13.82;;;6.60;;
37517;SDS011;23366;52.498;13.446;2022-12-10T10:11:52;13.80;;;7.30;;
37517;SDS011;23366;52.498;13.446;2022-12-10T10:14:24;14.00;;;6.90;;
37517;SDS011;23366;52.498;13.446;2022-12-10T10:23:46;14.25;;;7.47;;
37517;SDS011;23366;52.498;13.446;2022-12-10T10:26:12;11.88;;;6.82;;
37517;SDS011;23366;52.498;13.446;2022-12-10T10:28:39;10.32;;;7.00;;
37517;SDS011;23366;52.498;13.446;2022-12-10T10:31:20;17.23;;;6.97;;
37517;SDS011;23366;52.498;13.446;2022-12-10T10:33:54;11.85;;;7.07;;
37517;SDS011;23366;52.498;13.446;2022-12-10T10:36:44;15.07;;;7.90;;
37517;SDS011;23366;52.498;13.446;2022-12-10T10:40:30;12.95;;;7.38;;
37517;SDS011;23366;52.498;13.446;2022-12-10T10:43:59;12.10;;;7.10;;
37517;SDS011;23366;52.498;13.446;2022-12-10T10:46:28;16.05;;;7.50;;
37517;SDS011;23366;52.498;13.446;2022-12-10T10:49:23;11.33;;;6.50;;
37517;SDS011;23366;52.498;13.446;2022-12-10T10:51:52;14.70;;;7.82;;
37517;SDS011;23366;52.498;13.446;2022-12-10T10:56:58;12.93;;;8.20;;
37517;SDS011;23366;52.498;13.446;2022-12-10T10:59:34;17.38;;;7.97;;
37517;SDS011;23366;52.498;13.446;2022-12-10T11:02:14;11.55;;;6.45;;
37517;SDS011;23366;52.498;13.446;2022-12-10T11:04:45;12.57;;;8.43;;
37517;SDS011;23366;52.498;13.446;2022-12-10T11:10:48;12.57;;;7.25;;
37517;SDS011;23366;52.498;13.446;2022-12-10T11:13:19;12.35;;;7.88;;
37517;SDS011;23366;52.498;13.446;2022-12-10T11:21:43;12.93;;;7.95;;
37517;SDS011;23366;52.498;13.446;2022-12-10T11:24:12;13.95;;;7.00;;
37517;SDS011;23366;52.498;13.446;2022-12-10T11:26:52;18.15;;;8.68;;
37517;SDS011;23366;52.498;13.446;2022-12-10T11:32:21;14.68;;;7.93;;
37517;SDS011;23366;52.498;13.446;2022-12-10T11:40:24;12.68;;;7.68;;
37517;SDS011;23366;52.498;13.446;2022-12-10T11:45:43;14.20;;;7.47;;
37517;SDS011;23366;52.498;13.446;2022-12-10T11:54:51;16.10;;;9.02;;
37517;SDS011;23366;52.498;13.446;2022-12-10T12:05:41;16.95;;;8.40;;
37517;SDS011;23366;52.498;13.446;2022-12-10T12:08:47;15.57;;;8.60;;
37517;SDS011;23366;52.498;13.446;2022-12-10T12:11:47;15.68;;;7.10;;
37517;SDS011;23366;52.498;13.446;2022-12-10T12:14:42;18.98;;;7.30;;
37517;SDS011;23366;52.498;13.446;2022-12-10T12:20:11;14.93;;;8.63;;
37517;SDS011;23366;52.498;13.446;2022-12-10T12:23:00;15.75;;;8.38;;
37517;SDS011;23366;52.498;13.446;2022-12-10T12:25:36;11.63;;;7.55;;
37517;SDS011;23366;52.498;13.446;2022-12-10T12:28:24;14.10;;;7.85;;
37517;SDS011;23366;52.498;13.446;2022-12-10T12:30:53;19.70;;;9.38;;
37517;SDS011;23366;52.498;13.446;2022-12-10T12:36:43;17.98;;;7.00;;
37517;SDS011;23366;52.498;13.446;2022-12-10T12:39:15;14.23;;;8.27;;
37517;SDS011;23366;52.498;13.446;2022-12-10T12:41:55;18.67;;;7.65;;
37517;SDS011;23366;52.498;13.446;2022-12-10T12:47:56;14.33;;;7.47;;
37517;SDS011;23366;52.498;13.446;2022-12-10T12:53:14;10.93;;;6.57;;
37517;SDS011;23366;52.498;13.446;2022-12-10T13:01:45;13.80;;;6.82;;
37517;SDS011;23366;52.498;13.446;2022-12-10T13:04:14;9.95;;;6.05;;
37517;SDS011;23366;52.498;13.446;2022-12-10T13:06:42;11.35;;;6.60;;
37517;SDS011;23366;52.498;13.446;2022-12-10T13:09:43;13.02;;;6.95;;
37517;SDS011;23366;52.498;13.446;2022-12-10T13:12:45;11.93;;;7.22;;
37517;SDS011;23366;52.498;13.446;2022-12-10T13:15:35;15.52;;;7.00;;
37517;SDS011;23366;52.498;13.446;2022-12-10T13:18:48;14.27;;;7.32;;
37517;SDS011;23366;52.498;13.446;2022-12-10T13:23:51;15.82;;;9.10;;
37517;SDS011;23366;52.498;13.446;2022-12-10T13:26:30;13.20;;;6.38;;
37517;SDS011;23366;52.498;13.446;2022-12-10T13:29:10;14.50;;;7.63;;
37517;SDS011;23366;52.498;13.446;2022-12-10T13:31:44;13.18;;;8.32;;
37517;SDS011;23366;52.498;13.446;2022-12-10T13:34:23;11.88;;;7.50;;
37517;SDS011;23366;52.498;13.446;2022-12-10T13:39:48;11.05;;;5.53;;
37517;SDS011;23366;52.498;13.446;2022-12-10T13:42:30;13.35;;;7.85;;
37517;SDS011;23366;52.498;13.446;2022-12-10T13:47:54;12.93;;;7.22;;
37517;SDS011;23366;52.498;13.446;2022-12-10T13:50:42;15.10;;;7.47;;
37517;SDS011;23366;52.498;13.446;2022-12-10T13:56:28;12.20;;;7.22;;
37517;SDS011;23366;52.498;13.446;2022-12-10T14:02:18;19.60;;;8.80;;
37517;SDS011;23366;52.498;13.446;2022-12-10T14:08:12;17.55;;;9.18;;
37517;SDS011;23366;52.498;13.446;2022-12-10T14:10:41;9.95;;;6.43;;
37517;SDS011;23366;52.498;13.446;2022-12-10T14:13:10;17.58;;;9.73;;
37517;SDS011;23366;52.498;13.446;2022-12-10T14:15:37;18.75;;;10.25;;
37517;SDS011;23366;52.498;13.446;2022-12-10T14:18:06;15.40;;;8.90;;
37517;SDS011;23366;52.498;13.446;2022-12-10T14:20:39;18.77;;;8.95;;
37517;SDS011;23366;52.498;13.446;2022-12-10T14:23:23;15.45;;;8.73;;
37517;SDS011;23366;52.498;13.446;2022-12-10T14:26:03;16.80;;;8.27;;
37517;SDS011;23366;52.498;13.446;2022-12-10T14:28:30;21.25;;;11.35;;
37517;SDS011;23366;52.498;13.446;2022-12-10T14:30:58;16.63;;;9.77;;
37517;SDS011;23366;52.498;13.446;2022-12-10T14:33:24;14.52;;;8.15;;
37517;SDS011;23366;52.498;13.446;2022-12-10T14:35:50;23.38;;;8.80;;
37517;SDS011;23366;52.498;13.446;2022-12-10T14:38:26;17.73;;;8.25;;
37517;SDS011;23366;52.498;13.446;2022-12-10T14:40:54;16.90;;;8.55;;
37517;SDS011;23366;52.498;13.446;2022-12-10T14:43:21;18.27;;;8.70;;
37517;SDS011;23366;52.498;13.446;2022-12-10T14:45:53;18.65;;;8.52;;
37517;SDS011;23366;52.498;13.446;2022-12-10T14:48:23;17.23;;;7.43;;
37517;SDS011;23366;52.498;13.446;2022-12-10T14:51:13;17.73;;;8.27;;
37517;SDS011;23366;52.498;13.446;2022-12-10T14:53:44;23.50;;;10.38;;
37517;SDS011;23366;52.498;13.446;2022-12-10T14:56:11;15.93;;;7.72;;
37517;SDS011;23366;52.498;13.446;2022-12-10T14:58:56;18.52;;;9.82;;
37517;SDS011;23366;52.498;13.446;2022-12-10T15:01:33;14.45;;;7.68;;
37517;SDS011;23366;52.498;13.446;2022-12-10T15:04:03;21.13;;;10.10;;
37517;SDS011;23366;52.498;13.446;2022-12-10T15:06:35;15.35;;;8.50;;
37517;SDS011;23366;52.498;13.446;2022-12-10T15:09:01;17.88;;;9.52;;
37517;SDS011;23366;52.498;13.446;2022-12-10T15:11:28;28.70;;;12.30;;
37517;SDS011;23366;52.498;13.446;2022-12-10T15:13:56;28.15;;;11.50;;
37517;SDS011;23366;52.498;13.446;2022-12-10T15:16:37;28.17;;;12.02;;
37517;SDS011;23366;52.498;13.446;2022-12-10T15:24:48;25.25;;;10.38;;
37517;SDS011;23366;52.498;13.446;2022-12-10T15:27:18;17.98;;;7.85;;
37517;SDS011;23366;52.498;13.446;2022-12-10T15:32:14;16.27;;;6.95;;
37517;SDS011;23366;52.498;13.446;2022-12-10T15:34:46;18.90;;;9.90;;
37517;SDS011;23366;52.498;13.446;2022-12-10T15:37:21;18.65;;;8.75;;
37517;SDS011;23366;52.498;13.446;2022-12-10T15:39:56;23.88;;;10.68;;
37517;SDS011;23366;52.498;13.446;2022-12-10T15:42:38;19.55;;;10.77;;
37517;SDS011;23366;52.498;13.446;2022-12-10T15:45:15;18.67;;;10.07;;
37517;SDS011;23366;52.498;13.446;2022-12-10T15:47:49;18.73;;;10.18;;
37517;SDS011;23366;52.498;13.446;2022-12-10T15:50:28;28.25;;;10.75;;
37517;SDS011;23366;52.498;13.446;2022-12-10T15:52:57;25.30;;;8.48;;
37517;SDS011;23366;52.498;13.446;2022-12-10T15:55:23;23.92;;;9.52;;
37517;SDS011;23366;52.498;13.446;2022-12-10T15:57:49;18.20;;;8.82;;
37517;SDS011;23366;52.498;13.446;2022-12-10T16:00:20;26.75;;;10.60;;
37517;SDS011;23366;52.498;13.446;2022-12-10T16:02:57;23.17;;;9.15;;
37517;SDS011;23366;52.498;13.446;2022-12-10T16:07:58;25.63;;;10.23;;
37517;SDS011;23366;52.498;13.446;2022-12-10T16:10:27;27.00;;;9.80;;
37517;SDS011;23366;52.498;13.446;2022-12-10T16:12:59;31.13;;;11.60;;
37517;SDS011;23366;52.498;13.446;2022-12-10T16:15:43;26.55;;;10.48;;
37517;SDS011;23366;52.498;13.446;2022-12-10T16:18:16;29.40;;;11.05;;
37517;SDS011;23366;52.498;13.446;2022-12-10T16:20:42;28.13;;;11.20;;
37517;SDS011;23366;52.498;13.446;2022-12-10T16:23:08;22.20;;;10.52;;
37517;SDS011;23366;52.498;13.446;2022-12-10T16:25:35;21.70;;;9.43;;
37517;SDS011;23366;52.498;13.446;2022-12-10T16:28:02;25.13;;;10.77;;
37517;SDS011;23366;52.498;13.446;2022-12-10T16:30:35;32.97;;;10.20;;
37517;SDS011;23366;52.498;13.446;2022-12-10T16:33:29;29.40;;;9.37;;
37517;SDS011;23366;52.498;13.446;2022-12-10T16:35:54;27.00;;;9.75;;
37517;SDS011;23366;52.498;13.446;2022-12-10T16:38:29;29.23;;;9.18;;
37517;SDS011;23366;52.498;13.446;2022-12-10T16:40:58;37.75;;;11.98;;
37517;SDS011;23366;52.498;13.446;2022-12-10T16:43:34;23.60;;;9.75;;
37517;SDS011;23366;52.498;13.446;2022-12-10T16:45:59;29.45;;;11.18;;
37517;SDS011;23366;52.498;13.446;2022-12-10T16:48:40;28.48;;;9.35;;